Time;durP1;ratioP1;P1;durP2;ratioP2;P2;SDS_P1;SDS_P2;PMS_P1;PMS_P2;Temp;Humidity;BMP_temperature;BMP_pressure;BME280_temperature;BME280_humidity;BME280_pressure;Samples;Min_cycle;Max_cycle;Signal;HPM_P1;HPM_P2
2022/05/20 00:17:49;;;;;;;5.93;3.08;;;;;;;19.22;68.72;97265.88;6186993;23;20013;-81
2022/05/20 00:52:08;;;;;;;4.05;2.75;;;;;;;19.01;68.74;97301.47;6124725;23;20041;-80
2022/05/20 01:09:11;;;;;;;3.15;2.78;;;;;;;18.98;67.84;97272.00;6152416;23;19932;-80
2022/05/20 01:23:13;;;;;;;6.38;3.15;;;;;;;18.96;69.39;97251.09;6187931;22;20047;-78
2022/05/20 01:29:22;;;;;;;3.80;3.42;;;;;;;18.97;67.61;97246.59;6244827;23;20023;-79
2022/05/20 01:32:40;;;;;;;5.93;3.25;;;;;;;18.92;68.89;97249.91;6207789;23;20009;-79
2022/05/20 01:48:21;;;;;;;6.47;3.40;;;;;;;18.65;68.18;97244.03;6122501;23;20022;-79
2022/05/20 01:59:47;;;;;;;8.55;3.20;;;;;;;18.57;68.11;97246.97;6168531;22;20012;-79
2022/05/20 02:05:01;;;;;;;5.25;3.50;;;;;;;18.51;68.62;97238.06;6111514;22;20054;-79
2022/05/20 02:07:36;;;;;;;4.55;3.50;;;;;;;18.49;68.18;97225.06;6242356;23;20027;-79
2022/05/20 02:10:10;;;;;;;4.63;3.40;;;;;;;18.50;68.71;97226.69;6244455;23;20004;-79
2022/05/20 02:12:52;;;;;;;4.10;3.70;;;;;;;18.49;68.49;97222.41;6243579;23;20143;-79
2022/05/20 02:15:27;;;;;;;6.15;3.67;;;;;;;18.46;68.35;97219.41;6244641;23;20005;-79
2022/05/20 02:24:26;;;;;;;5.97;3.90;;;;;;;18.41;68.53;97227.16;6179385;23;20048;-80
2022/05/20 02:30:03;;;;;;;8.30;4.70;;;;;;;18.38;68.42;97220.47;6174153;23;20228;-79
2022/05/20 02:32:34;;;;;;;8.48;3.95;;;;;;;18.37;68.22;97221.50;6178268;23;20021;-80
2022/05/20 02:35:02;;;;;;;8.77;4.22;;;;;;;18.35;68.34;97218.28;6173615;23;20109;-79
2022/05/20 02:37:33;;;;;;;6.55;4.00;;;;;;;18.35;68.29;97217.47;6173942;23;20583;-80
2022/05/20 02:40:04;;;;;;;6.85;3.25;;;;;;;18.32;68.44;97216.88;6175609;23;20028;-79
2022/05/20 02:42:32;;;;;;;7.18;3.85;;;;;;;18.30;68.28;97211.00;6175546;23;20048;-79
2022/05/20 02:45:01;;;;;;;4.20;3.72;;;;;;;18.31;69.11;97211.81;6176023;23;20089;-79
2022/05/20 02:47:31;;;;;;;5.10;3.83;;;;;;;18.33;68.63;97220.31;6175412;23;20059;-79
2022/05/20 02:50:00;;;;;;;6.10;3.72;;;;;;;18.36;69.62;97221.72;6174264;23;20077;-79
2022/05/20 02:52:28;;;;;;;5.05;3.72;;;;;;;18.38;68.11;97217.03;6175143;23;20079;-79
2022/05/20 02:54:55;;;;;;;5.28;4.10;;;;;;;18.38;68.31;97228.41;6173112;23;20028;-79
2022/05/20 02:57:24;;;;;;;5.35;4.35;;;;;;;18.38;68.59;97231.03;6169401;23;20032;-79
2022/05/20 03:05:24;;;;;;;8.98;3.78;;;;;;;18.34;68.47;97237.78;6179067;23;20005;-79
2022/05/20 03:07:59;;;;;;;5.95;3.90;;;;;;;18.36;67.87;97230.44;6181011;23;20036;-79
2022/05/20 03:10:27;;;;;;;6.38;3.90;;;;;;;18.32;68.01;97239.81;6181980;23;20021;-80
2022/05/20 03:13:00;;;;;;;7.45;4.00;;;;;;;18.27;68.21;97234.38;6181929;23;20041;-79
2022/05/20 03:15:28;;;;;;;4.93;4.10;;;;;;;18.23;68.17;97235.84;6182216;23;20018;-79
2022/05/20 03:17:56;;;;;;;5.32;3.65;;;;;;;18.22;68.27;97234.22;6181085;23;20047;-79
2022/05/20 03:20:25;;;;;;;4.32;3.60;;;;;;;18.20;68.30;97228.34;6182227;23;20052;-79
2022/05/20 03:22:52;;;;;;;5.75;3.78;;;;;;;18.19;68.33;97230.19;6181895;23;20028;-80
2022/05/20 03:25:21;;;;;;;6.40;4.20;;;;;;;18.20;68.20;97231.81;6180941;23;20160;-79
2022/05/20 03:27:49;;;;;;;6.30;3.97;;;;;;;18.21;68.09;97232.59;6181211;23;20022;-80
2022/05/20 03:30:19;;;;;;;6.63;4.10;;;;;;;18.20;68.25;97234.44;6181703;23;20005;-79
2022/05/20 03:32:47;;;;;;;10.77;4.00;;;;;;;18.18;68.15;97239.13;6180039;23;20045;-79
2022/05/20 03:35:15;;;;;;;11.10;4.40;;;;;;;18.15;67.90;97233.44;6179565;23;20022;-80
2022/05/20 03:37:43;;;;;;;4.95;3.90;;;;;;;18.12;67.97;97234.69;6179144;23;20046;-80
2022/05/20 03:40:11;;;;;;;5.15;4.30;;;;;;;18.07;68.06;97237.97;6179801;23;20022;-80
2022/05/20 03:42:39;;;;;;;4.82;4.22;;;;;;;18.04;68.14;97221.78;6179878;23;20018;-80
2022/05/20 03:45:09;;;;;;;7.32;3.92;;;;;;;18.00;68.20;97231.94;6179931;23;20033;-79
2022/05/20 03:47:39;;;;;;;7.45;4.30;;;;;;;17.98;68.18;97222.63;6181238;23;20008;-80
2022/05/20 03:50:07;;;;;;;3.92;3.47;;;;;;;17.96;68.27;97222.03;6183315;23;20069;-80
2022/05/20 03:52:35;;;;;;;5.57;3.40;;;;;;;17.96;68.31;97222.81;6182643;23;20001;-80
2022/05/20 03:55:03;;;;;;;5.55;3.63;;;;;;;17.97;68.21;97221.00;6181736;23;20028;-80
2022/05/20 03:57:31;;;;;;;11.20;3.95;;;;;;;17.96;68.21;97220.19;6178776;23;20049;-80
2022/05/20 04:00:00;;;;;;;7.32;4.85;;;;;;;17.99;68.08;97227.66;6176524;23;20046;-79
2022/05/20 04:02:29;;;;;;;6.78;4.28;;;;;;;17.99;68.01;97226.88;6178540;23;20017;-80
2022/05/20 04:04:59;;;;;;;5.25;3.83;;;;;;;17.97;68.17;97227.06;6177094;23;20013;-80
2022/05/20 04:07:28;;;;;;;11.63;4.75;;;;;;;17.97;68.02;97235.00;6173178;23;20021;-80
2022/05/20 04:09:56;;;;;;;5.72;4.00;;;;;;;17.97;67.96;97231.56;6176396;23;20029;-79
2022/05/20 04:12:26;;;;;;;4.78;4.30;;;;;;;17.95;68.12;97229.16;6172638;23;20018;-80
2022/05/20 04:14:55;;;;;;;6.13;3.92;;;;;;;17.95;68.26;97221.22;6175890;23;20018;-80
2022/05/20 04:17:23;;;;;;;8.43;3.70;;;;;;;17.97;68.09;97231.56;6176144;23;20024;-80
2022/05/20 04:19:52;;;;;;;9.55;3.83;;;;;;;17.98;68.23;97225.25;6178280;23;20028;-80
2022/05/20 04:22:26;;;;;;;7.93;3.78;;;;;;;17.98;68.51;97226.06;6175924;23;20021;-80
2022/05/20 04:24:54;;;;;;;8.80;3.97;;;;;;;17.99;67.92;97225.03;6177038;23;20018;-80
2022/05/20 04:27:23;;;;;;;4.78;3.92;;;;;;;17.98;67.61;97218.16;6176492;23;20025;-81
2022/05/20 04:29:51;;;;;;;3.67;3.33;;;;;;;18.01;68.34;97223.00;6177051;23;20024;-80
2022/05/20 04:32:18;;;;;;;5.82;3.83;;;;;;;18.04;67.79;97222.56;6177371;23;20022;-80
2022/05/20 04:34:47;;;;;;;4.75;3.53;;;;;;;18.09;68.19;97224.56;6176447;23;20023;-80
2022/05/20 04:37:15;;;;;;;4.05;3.55;;;;;;;18.11;67.99;97223.31;6170221;23;20052;-80
2022/05/20 04:39:44;;;;;;;4.30;3.85;;;;;;;18.15;67.43;97228.16;6168335;23;20022;-80
2022/05/20 04:48:30;;;;;;;4.50;3.33;;;;;;;18.26;67.07;97222.22;6181719;23;20025;-80
2022/05/20 04:50:58;;;;;;;4.88;3.30;;;;;;;18.29;66.98;97224.41;6163388;23;20035;-79
2022/05/20 04:56:29;;;;;;;5.55;4.30;;;;;;;18.33;66.73;97220.31;6170109;23;20025;-79
2022/05/20 04:58:57;;;;;;;6.63;3.97;;;;;;;18.34;66.73;97219.28;6177395;23;20005;-80
2022/05/20 05:01:24;;;;;;;4.75;3.90;;;;;;;18.35;66.62;97223.56;6175942;23;20020;-79
2022/05/20 05:03:52;;;;;;;6.68;3.88;;;;;;;18.36;66.63;97224.38;6172017;23;20069;-80
2022/05/20 05:06:20;;;;;;;4.05;3.60;;;;;;;18.36;66.80;97225.16;6172078;23;20018;-80
2022/05/20 05:08:48;;;;;;;4.15;3.75;;;;;;;18.38;66.69;97223.13;6177576;23;20029;-80
2022/05/20 05:11:15;;;;;;;5.78;3.88;;;;;;;18.40;66.90;97221.06;6174642;23;20013;-80
2022/05/20 05:13:44;;;;;;;6.47;3.75;;;;;;;18.43;67.20;97225.09;6178305;23;20052;-79
2022/05/20 05:20:15;;;;;;;7.20;3.67;;;;;;;18.48;66.74;97226.09;6238571;23;20012;-83
2022/05/20 05:29:30;;;;;;;4.03;3.38;;;;;;;18.58;66.91;97219.50;6202709;23;20013;-82
2022/05/20 05:32:01;;;;;;;4.53;3.22;;;;;;;18.59;66.74;97215.84;6204063;23;20020;-81
2022/05/20 05:34:28;;;;;;;5.72;4.00;;;;;;;18.62;66.64;97210.13;6196941;23;20017;-81
2022/05/20 05:36:56;;;;;;;4.07;3.22;;;;;;;18.62;66.72;97213.56;6204468;23;20047;-80
2022/05/20 05:39:24;;;;;;;4.30;3.20;;;;;;;18.63;66.84;97214.34;6199681;23;20017;-80
2022/05/20 05:41:51;;;;;;;4.13;3.72;;;;;;;18.66;67.81;97224.50;6205451;23;20032;-80
2022/05/20 05:44:20;;;;;;;6.40;3.05;;;;;;;18.70;67.21;97225.69;6201343;23;20048;-80
2022/05/20 05:46:48;;;;;;;5.75;3.55;;;;;;;18.73;67.03;97215.47;6202357;23;20116;-81
2022/05/20 05:49:16;;;;;;;8.18;3.60;;;;;;;18.78;66.75;97217.50;6193204;23;20021;-81
2022/05/20 05:51:45;;;;;;;3.70;3.38;;;;;;;18.82;66.83;97221.31;6196689;23;20354;-81
2022/05/20 05:54:12;;;;;;;5.55;3.45;;;;;;;18.87;66.59;97216.22;6201586;23;20047;-80
2022/05/20 05:56:40;;;;;;;5.72;3.47;;;;;;;18.93;66.36;97222.44;6195633;23;20513;-81
2022/05/20 05:59:08;;;;;;;5.53;3.20;;;;;;;18.98;66.46;97217.31;6202221;23;20076;-81
2022/05/20 06:01:37;;;;;;;9.50;4.13;;;;;;;19.04;66.43;97219.06;6195899;23;20039;-80
2022/05/20 06:04:04;;;;;;;4.82;3.90;;;;;;;19.11;65.98;97224.25;6199274;23;20040;-80
2022/05/20 06:06:32;;;;;;;8.70;4.35;;;;;;;19.16;66.12;97216.50;6193100;23;20073;-80
2022/05/20 06:09:00;;;;;;;6.45;3.10;;;;;;;19.21;65.75;97214.00;6189615;23;20021;-79
2022/05/20 06:11:27;;;;;;;7.55;3.33;;;;;;;19.27;65.86;97221.03;6197624;23;20039;-78
2022/05/20 06:13:56;;;;;;;4.32;3.13;;;;;;;19.34;66.23;97213.81;6196161;23;20064;-80
2022/05/20 06:16:23;;;;;;;8.65;3.47;;;;;;;19.41;66.00;97212.94;6211055;23;20016;-79
2022/05/20 06:18:52;;;;;;;8.30;3.45;;;;;;;19.47;65.41;97214.69;6209401;23;20005;-78
2022/05/20 06:21:20;;;;;;;9.50;3.95;;;;;;;19.53;66.06;97203.22;6211679;23;20015;-80
2022/05/20 06:23:48;;;;;;;9.07;4.35;;;;;;;19.60;65.78;97203.13;6212268;23;20029;-81
2022/05/20 06:26:15;;;;;;;6.72;3.97;;;;;;;19.68;65.73;97202.84;6212454;23;20036;-81
2022/05/20 06:28:44;;;;;;;6.10;4.10;;;;;;;19.75;66.08;97203.56;6212611;23;20039;-82
2022/05/20 06:31:12;;;;;;;8.80;3.92;;;;;;;19.83;66.07;97202.44;6209679;23;20041;-81
2022/05/20 06:33:40;;;;;;;7.50;4.47;;;;;;;19.92;65.83;97201.09;6209310;23;20310;-79
2022/05/20 06:41:40;;;;;;;6.57;3.33;;;;;;;20.17;64.87;97199.03;6209160;23;20037;-80
2022/05/20 06:44:07;;;;;;;6.80;3.45;;;;;;;20.24;64.91;97192.84;6198666;23;20095;-79
2022/05/20 06:46:36;;;;;;;4.25;3.38;;;;;;;20.32;65.02;97195.16;6190703;23;20048;-82
2022/05/20 06:49:04;;;;;;;3.97;2.70;;;;;;;20.41;64.73;97192.97;6188463;23;20019;-83
2022/05/20 06:51:36;;;;;;;5.97;3.55;;;;;;;20.50;64.93;97202.19;6186173;23;20457;-83
2022/05/20 06:54:06;;;;;;;7.35;3.97;;;;;;;20.57;64.82;97194.97;6187513;23;20458;-83
2022/05/20 06:56:36;;;;;;;4.40;3.20;;;;;;;20.67;65.66;97194.41;6188589;23;20029;-84
2022/05/20 06:59:07;;;;;;;6.60;3.30;;;;;;;20.74;65.12;97198.53;6189265;23;20545;-83
2022/05/20 07:01:35;;;;;;;4.07;3.20;;;;;;;20.83;65.94;97195.53;6191558;23;20017;-82
2022/05/20 07:04:03;;;;;;;5.28;3.05;;;;;;;20.91;65.49;97201.28;6189796;23;20017;-83
2022/05/20 07:06:32;;;;;;;6.57;3.42;;;;;;;20.99;65.64;97197.47;6190525;23;20096;-83
2022/05/20 07:09:01;;;;;;;3.95;3.22;;;;;;;21.08;64.77;97195.25;6193102;23;20021;-83
2022/05/20 07:11:29;;;;;;;7.40;4.07;;;;;;;21.18;65.49;97190.16;6198061;23;20048;-80
2022/05/20 07:13:58;;;;;;;5.07;3.63;;;;;;;21.27;64.64;97183.44;6198205;23;20052;-81
2022/05/20 07:16:27;;;;;;;4.55;3.15;;;;;;;21.40;64.32;97190.31;6196311;23;20014;-81
2022/05/20 07:18:56;;;;;;;3.60;3.28;;;;;;;21.51;64.40;97183.38;6195784;23;20013;-80
2022/05/20 07:21:24;;;;;;;5.22;3.45;;;;;;;21.59;64.42;97183.81;6195856;23;20104;-81
2022/05/20 07:23:51;;;;;;;5.38;3.38;;;;;;;21.70;64.17;97176.81;6197086;23;20054;-80
2022/05/20 07:26:20;;;;;;;6.03;3.45;;;;;;;21.80;63.65;97179.66;6198064;23;20096;-80
2022/05/20 07:28:48;;;;;;;4.72;3.60;;;;;;;21.91;63.73;97180.66;6190903;23;20016;-82
2022/05/20 07:31:17;;;;;;;5.85;3.08;;;;;;;22.01;63.78;97180.81;6193202;23;20073;-82
2022/05/20 07:33:44;;;;;;;6.60;3.45;;;;;;;22.13;63.70;97180.75;6193820;23;20017;-82
2022/05/20 07:36:12;;;;;;;8.05;3.80;;;;;;;22.25;63.26;97174.56;6196616;23;20024;-80
2022/05/20 07:38:39;;;;;;;4.05;3.17;;;;;;;22.37;62.65;97177.94;6195357;23;20055;-81
2022/05/20 07:41:08;;;;;;;5.35;4.15;;;;;;;22.49;62.59;97186.63;6195675;23;20017;-78
2022/05/20 07:43:37;;;;;;;7.38;3.70;;;;;;;22.59;62.40;97186.78;6198053;23;20357;-79
2022/05/20 07:46:05;;;;;;;6.07;3.50;;;;;;;22.73;62.28;97186.44;6197045;23;20527;-79
2022/05/20 07:48:33;;;;;;;6.00;3.63;;;;;;;22.86;62.46;97187.94;6196535;23;20017;-80
2022/05/20 07:51:02;;;;;;;8.80;4.05;;;;;;;22.98;62.00;97188.59;6196852;23;20092;-80
2022/05/20 07:53:35;;;;;;;6.50;3.40;;;;;;;23.09;61.44;97179.75;6196686;23;20027;-81
2022/05/20 07:56:10;;;;;;;6.38;3.92;;;;;;;23.24;61.80;97171.13;6195983;23;20028;-80
2022/05/20 07:58:44;;;;;;;7.25;3.95;;;;;;;23.35;61.19;97170.22;6162931;23;20026;-80
2022/05/20 08:01:17;;;;;;;8.38;3.90;;;;;;;23.48;61.30;97176.19;6154807;23;20399;-80
2022/05/20 08:06:43;;;;;;;6.00;4.07;;;;;;;23.65;60.35;97176.91;6064032;23;20041;-80
2022/05/20 08:09:11;;;;;;;4.95;3.83;;;;;;;23.76;59.77;97172.50;6133791;23;20092;-80
2022/05/20 08:11:38;;;;;;;8.88;4.38;;;;;;;23.87;58.77;97170.72;6154683;23;20044;-80
2022/05/20 08:14:07;;;;;;;6.10;4.22;;;;;;;23.96;59.89;97171.88;6154476;23;20084;-80
2022/05/20 08:16:35;;;;;;;7.28;3.90;;;;;;;24.08;59.80;97167.19;6155553;23;20026;-79
2022/05/20 08:19:03;;;;;;;7.85;4.25;;;;;;;24.15;59.11;97165.09;6157247;23;20022;-81
2022/05/20 08:21:31;;;;;;;6.28;3.80;;;;;;;24.23;57.88;97167.31;6156135;23;20022;-80
2022/05/20 08:23:59;;;;;;;5.30;3.42;;;;;;;24.26;55.62;97152.66;6155834;23;20096;-80
2022/05/20 08:26:26;;;;;;;3.10;2.78;;;;;;;24.31;52.19;97162.56;6155394;23;20013;-80
2022/05/20 08:28:54;;;;;;;5.65;3.08;;;;;;;24.39;52.68;97164.75;6156390;23;20369;-80
2022/05/20 08:31:23;;;;;;;5.10;3.05;;;;;;;24.49;51.07;97162.19;6155774;23;20465;-79
2022/05/20 08:33:51;;;;;;;5.38;2.90;;;;;;;24.59;49.75;97156.09;6158047;23;20044;-80
2022/05/20 08:36:19;;;;;;;8.13;3.05;;;;;;;24.70;50.41;97159.63;6164274;23;20060;-81
2022/05/20 08:38:47;;;;;;;4.30;2.63;;;;;;;24.79;50.58;97142.84;6182062;23;20021;-80
2022/05/20 08:41:18;;;;;;;4.22;2.97;;;;;;;24.89;49.23;97147.44;6182303;23;20017;-81
2022/05/20 08:43:48;;;;;;;6.72;2.95;;;;;;;24.96;47.93;97141.88;6167195;23;20033;-81
2022/05/20 08:46:18;;;;;;;7.82;2.88;;;;;;;25.01;49.14;97150.69;6158285;23;20361;-81
2022/05/20 08:48:51;;;;;;;4.25;2.92;;;;;;;25.08;49.68;97151.28;6179937;23;20010;-81
2022/05/20 08:51:19;;;;;;;4.95;3.33;;;;;;;25.15;48.86;97156.38;6181025;23;20045;-81
2022/05/20 08:53:50;;;;;;;4.20;2.50;;;;;;;25.21;49.02;97143.84;6174051;23;20017;-81
2022/05/20 08:56:20;;;;;;;5.05;3.92;;;;;;;25.28;48.84;97149.75;6159311;23;20405;-80
2022/05/20 08:58:53;;;;;;;5.53;3.15;;;;;;;25.36;48.63;97151.09;6156475;23;20488;-81
2022/05/20 09:01:27;;;;;;;5.47;2.88;;;;;;;25.42;48.80;97136.69;6155965;23;20021;-80
2022/05/20 09:03:56;;;;;;;7.45;3.53;;;;;;;25.48;48.31;97135.66;6156086;23;20053;-80
2022/05/20 09:06:25;;;;;;;4.75;3.03;;;;;;;25.56;48.52;97131.63;6155789;23;20422;-80
2022/05/20 09:09:04;;;;;;;6.50;2.90;;;;;;;25.66;48.94;97137.00;6156428;23;20101;-80
2022/05/20 09:11:32;;;;;;;4.88;3.45;;;;;;;25.75;46.89;97127.38;6169552;23;20016;-80
2022/05/20 09:17:09;;;;;;;7.47;3.13;;;;;;;25.92;47.16;97118.34;6182206;23;20114;-81
2022/05/20 09:19:53;;;;;;;15.32;3.65;;;;;;;25.99;47.28;97116.19;6172546;23;20473;-79
2022/05/20 09:22:28;;;;;;;5.85;2.85;;;;;;;26.08;47.44;97109.25;6180953;23;20021;-80
2022/05/20 09:24:58;;;;;;;6.57;3.80;;;;;;;26.17;46.67;97104.16;6173017;23;20028;-78
2022/05/20 09:27:31;;;;;;;7.30;3.22;;;;;;;26.23;45.98;97103.06;6213292;23;20021;-80
2022/05/20 09:30:02;;;;;;;5.70;3.83;;;;;;;26.28;46.05;97109.22;6210679;23;20034;-79
2022/05/20 09:32:47;;;;;;;3.35;2.65;;;;;;;26.33;45.57;97100.41;6213569;23;20020;-80
2022/05/20 09:36:08;;;;;;;4.80;2.42;;;;;;;26.40;44.44;97100.09;6212363;23;20009;-81
2022/05/20 09:38:49;;;;;;;5.75;3.13;;;;;;;26.45;43.57;97102.75;6214159;23;20025;-82
2022/05/20 09:42:07;;;;;;;2.90;2.63;;;;;;;26.52;42.97;97104.09;6214386;23;20079;-82
2022/05/20 09:44:40;;;;;;;5.72;2.67;;;;;;;26.59;42.43;97098.47;6204848;23;20017;-79
2022/05/20 09:47:29;;;;;;;4.10;2.72;;;;;;;26.68;44.01;97086.13;6211258;23;20052;-80
2022/05/20 09:50:02;;;;;;;5.07;2.95;;;;;;;26.78;44.06;97087.16;6211516;23;20032;-80
2022/05/20 09:52:40;;;;;;;5.43;2.90;;;;;;;26.84;43.49;97092.22;6210455;23;20016;-78
2022/05/20 09:55:23;;;;;;;24.10;14.77;;;;;;;26.88;45.11;97092.47;6204312;23;20456;-81
2022/05/20 09:57:55;;;;;;;6.65;3.95;;;;;;;26.91;42.91;97083.88;6204384;23;20011;-79
2022/05/20 10:00:26;;;;;;;5.85;3.17;;;;;;;26.94;44.18;97080.69;6206924;23;20056;-80
2022/05/20 10:02:59;;;;;;;3.95;2.80;;;;;;;27.00;41.87;97076.88;6200051;23;20083;-79
2022/05/20 10:05:32;;;;;;;5.03;3.28;;;;;;;27.06;45.19;97067.75;6212108;23;20017;-79
2022/05/20 10:08:12;;;;;;;6.53;3.38;;;;;;;27.13;42.76;97067.44;6213614;23;20021;-80
2022/05/20 10:11:02;;;;;;;7.75;3.20;;;;;;;27.18;44.77;97055.88;6214178;23;20060;-78
2022/05/20 10:13:46;;;;;;;5.88;3.03;;;;;;;27.22;43.43;97062.31;6212260;23;20036;-82
2022/05/20 10:16:34;;;;;;;5.88;3.00;;;;;;;27.26;41.79;97047.31;6209968;23;20005;-83
2022/05/20 10:22:14;;;;;;;5.97;3.35;;;;;;;27.42;42.73;97045.31;6195459;23;20036;-83
2022/05/20 10:33:07;;;;;;;11.65;7.45;;;;;;;27.72;42.49;97038.91;6174337;23;20092;-83
2022/05/20 10:39:21;;;;;;;9.38;4.13;;;;;;;27.84;40.20;97025.94;6213253;23;20017;-81
2022/05/20 10:51:54;;;;;;;7.50;3.28;;;;;;;28.09;40.34;97022.22;6185575;23;20006;-82
2022/05/20 10:54:41;;;;;;;5.10;2.70;;;;;;;28.14;40.71;97029.41;6184734;23;20008;-82
2022/05/20 14:01:51;;;;;;;9.23;2.95;;;;;;;29.96;35.89;96639.09;6189081;23;19923;-84
2022/05/20 14:04:20;;;;;;;5.60;2.55;;;;;;;29.95;36.13;96645.56;6190053;23;20024;-84
2022/05/20 14:06:49;;;;;;;6.45;2.58;;;;;;;29.94;35.41;96638.59;6190976;23;20424;-84
2022/05/20 14:09:17;;;;;;;10.25;3.10;;;;;;;29.95;34.58;96640.19;6190260;23;20048;-84
2022/05/20 14:11:52;;;;;;;6.18;2.70;;;;;;;29.95;35.02;96645.56;6189909;23;20023;-84
2022/05/20 14:14:25;;;;;;;6.68;2.60;;;;;;;29.92;33.93;96627.34;6190123;23;20031;-84
2022/05/20 14:16:57;;;;;;;7.07;2.63;;;;;;;29.91;35.34;96633.84;6188592;23;20019;-84
2022/05/20 14:19:29;;;;;;;4.10;2.60;;;;;;;29.90;34.56;96626.88;6190422;23;20017;-83
2022/05/20 14:22:03;;;;;;;5.35;3.30;;;;;;;29.92;37.28;96630.03;6189780;23;20017;-85
2022/05/20 14:24:38;;;;;;;5.63;2.50;;;;;;;29.92;37.76;96624.66;6189364;23;20092;-83
2022/05/20 14:27:29;;;;;;;6.43;2.47;;;;;;;29.90;35.07;96631.44;6189121;23;20116;-85
2022/05/20 14:30:20;;;;;;;3.50;2.40;;;;;;;29.91;36.05;96627.66;6194816;23;20040;-84
2022/05/20 14:32:53;;;;;;;5.65;2.97;;;;;;;29.90;35.36;96626.88;6194105;23;20092;-84
2022/05/20 14:35:26;;;;;;;8.80;3.00;;;;;;;29.92;36.55;96613.91;6196980;23;20031;-85
2022/05/20 14:37:54;;;;;;;7.88;2.70;;;;;;;29.91;35.80;96606.97;6207642;23;20069;-84
2022/05/20 14:40:28;;;;;;;3.95;3.28;;;;;;;29.92;35.72;96603.16;6199758;23;20052;-83
2022/05/20 14:43:03;;;;;;;5.53;2.83;;;;;;;29.90;37.38;96616.09;6198179;23;20021;-84
2022/05/20 14:45:36;;;;;;;5.72;2.63;;;;;;;29.89;34.97;96608.34;6195960;23;20028;-83
2022/05/20 14:48:09;;;;;;;5.93;3.45;;;;;;;29.88;36.75;96599.47;6194388;23;20021;-83
2022/05/20 14:50:37;;;;;;;8.98;2.88;;;;;;;29.86;34.84;96598.22;6193635;23;20076;-84
2022/05/20 14:53:08;;;;;;;6.78;2.70;;;;;;;29.83;34.86;96588.88;6196281;23;20052;-83
2022/05/20 14:55:42;;;;;;;5.78;2.80;;;;;;;29.82;35.77;96592.63;6192342;23;20037;-84
2022/05/20 14:58:14;;;;;;;4.57;2.70;;;;;;;29.83;36.58;96580.78;6192497;23;20028;-84
2022/05/20 15:00:52;;;;;;;3.33;3.03;;;;;;;29.83;35.84;96578.09;6192625;23;20095;-84
2022/05/20 15:03:22;;;;;;;7.50;2.90;;;;;;;29.83;35.90;96572.72;6194317;23;20063;-85
2022/05/20 15:05:53;;;;;;;6.37;2.63;;;;;;;29.82;36.32;96565.75;6192697;23;20028;-85
2022/05/20 15:08:23;;;;;;;4.88;2.33;;;;;;;29.80;35.56;96553.72;6190414;23;20047;-87
2022/05/20 15:10:56;;;;;;;5.70;2.95;;;;;;;29.81;36.08;96553.41;6191436;23;20489;-86
2022/05/20 15:13:26;;;;;;;4.32;2.90;;;;;;;29.79;35.49;96536.81;6191005;23;20357;-84
2022/05/20 15:15:54;;;;;;;5.18;3.13;;;;;;;29.80;35.62;96541.06;6189462;23;20408;-83
2022/05/20 15:18:23;;;;;;;8.15;2.72;;;;;;;29.82;36.03;96530.78;6189772;23;20025;-83
2022/05/20 15:20:53;;;;;;;7.05;2.65;;;;;;;29.83;35.97;96526.25;6190487;23;20048;-82
2022/05/20 15:23:26;;;;;;;4.25;2.75;;;;;;;29.82;35.38;96500.44;6191167;23;20061;-82
2022/05/20 15:25:54;;;;;;;5.95;2.28;;;;;;;29.81;35.94;96485.41;6189573;23;20108;-82
2022/05/20 15:36:44;;;;;;;4.20;2.63;;;;;;;29.62;37.25;96437.22;6188580;23;20100;-83
2022/05/20 15:39:14;;;;;;;5.47;2.70;;;;;;;29.59;35.68;96470.88;6189587;23;20488;-83
2022/05/20 15:41:42;;;;;;;4.82;2.55;;;;;;;29.57;37.42;96591.34;6188967;23;20100;-83
2022/05/20 15:44:09;;;;;;;13.57;3.17;;;;;;;29.47;40.56;96646.09;6188978;23;20017;-81
2022/05/20 15:46:37;;;;;;;13.15;3.47;;;;;;;29.16;45.07;96713.13;6187014;23;20020;-86
2022/05/20 15:49:07;;;;;;;9.05;3.15;;;;;;;28.61;47.61;96791.66;6190901;23;20023;-82
2022/05/20 15:51:35;;;;;;;5.65;3.03;;;;;;;28.15;47.79;96687.75;6192524;23;20021;-82
2022/05/20 15:54:04;;;;;;;10.10;3.85;;;;;;;27.78;49.03;96704.63;6189612;23;20085;-83
2022/05/20 15:56:32;;;;;;;7.90;3.28;;;;;;;27.52;50.49;96680.84;6188884;23;20017;-81
2022/05/20 15:59:00;;;;;;;12.13;3.55;;;;;;;27.32;50.43;96712.19;6185020;23;20021;-79
2022/05/20 16:01:28;;;;;;;10.57;4.45;;;;;;;27.19;53.40;96738.84;6184848;23;20032;-80
2022/05/20 16:03:57;;;;;;;10.20;4.45;;;;;;;27.10;53.57;96719.91;6185263;23;20021;-82
2022/05/20 16:06:28;;;;;;;8.93;3.80;;;;;;;26.95;53.73;96715.53;6184701;23;20100;-82
2022/05/20 16:08:59;;;;;;;8.33;3.33;;;;;;;26.81;53.20;96709.28;6186356;23;20116;-81
2022/05/20 16:11:30;;;;;;;8.45;4.22;;;;;;;26.67;54.38;96704.56;6188478;23;20243;-80
2022/05/20 16:13:58;;;;;;;6.85;4.18;;;;;;;26.54;55.27;96691.81;6196526;23;20095;-83
2022/05/20 16:16:25;;;;;;;8.20;3.70;;;;;;;26.39;54.65;96692.78;6203556;23;20099;-82
2022/05/20 16:18:54;;;;;;;5.63;3.40;;;;;;;26.23;54.99;96697.44;6211197;23;20009;-84
2022/05/20 16:21:22;;;;;;;8.43;3.45;;;;;;;26.10;55.48;96706.09;6212353;23;20073;-83
2022/05/20 16:23:54;;;;;;;6.75;4.45;;;;;;;25.95;56.46;96731.06;6212090;23;20009;-82
2022/05/20 16:26:23;;;;;;;;;;;;;;;25.87;55.66;96745.00;6212254;23;20028;-83
2022/05/20 16:28:52;;;;;;;8.70;3.28;;;;;;;25.74;55.93;96742.94;6212108;23;19915;-82
2022/05/20 16:31:20;;;;;;;9.25;3.83;;;;;;;25.66;57.07;96745.09;6212414;23;20104;-82
2022/05/20 16:33:48;;;;;;;7.97;3.83;;;;;;;25.64;58.23;96747.22;6212882;23;20040;-82
2022/05/20 16:36:34;;;;;;;5.88;3.60;;;;;;;25.61;56.89;96747.00;6212568;23;20040;-81
2022/05/20 16:39:15;;;;;;;7.03;3.65;;;;;;;25.57;58.39;96732.59;6214339;23;20044;-81
2022/05/20 16:41:42;;;;;;;7.15;3.83;;;;;;;25.53;59.09;96716.31;6214622;23;20020;-81
2022/05/20 16:44:11;;;;;;;8.48;4.25;;;;;;;25.48;59.31;96697.66;6214779;23;20012;-81
2022/05/20 16:46:40;;;;;;;9.65;3.70;;;;;;;25.42;60.09;96685.38;6213968;23;20008;-81
2022/05/20 16:49:12;;;;;;;8.52;4.15;;;;;;;25.34;61.00;96689.41;6214761;23;20048;-81
2022/05/20 16:51:44;;;;;;;8.77;3.85;;;;;;;25.27;61.62;96688.91;6214640;23;20005;-81
2022/05/20 16:54:17;;;;;;;7.20;3.60;;;;;;;25.20;61.19;96677.75;6215163;23;20029;-81
2022/05/20 17:07:00;;;;;;;7.40;3.85;;;;;;;24.97;62.35;96669.28;6202027;23;20012;-80
2022/05/20 17:09:40;;;;;;;7.25;4.20;;;;;;;24.94;63.34;96672.47;6215186;23;20016;-80
2022/05/20 17:12:11;;;;;;;8.38;4.13;;;;;;;24.92;63.62;96650.59;6215098;23;20076;-81
2022/05/20 17:18:40;;;;;;;6.70;5.35;;;;;;;24.84;64.67;96635.97;6215664;23;20048;-81
2022/05/20 17:46:06;;;;;;;15.50;5.35;;;;;;;24.49;65.85;96577.38;6169354;23;20023;-74
2022/05/20 17:48:34;;;;;;;9.52;5.80;;;;;;;24.45;65.58;96569.13;6215344;23;20095;-74
2022/05/20 17:51:07;;;;;;;9.00;5.60;;;;;;;24.39;65.57;96557.66;6215762;23;20048;-74
2022/05/20 17:53:35;;;;;;;6.35;5.07;;;;;;;24.31;65.75;96557.41;6215970;23;20023;-74
2022/05/20 17:56:03;;;;;;;8.38;5.90;;;;;;;24.23;65.88;96559.56;6214724;23;20411;-74
2022/05/20 17:58:30;;;;;;;9.85;5.03;;;;;;;24.14;65.88;96555.84;6214667;23;20017;-74
2022/05/20 18:00:58;;;;;;;9.63;5.50;;;;;;;24.06;65.41;96559.06;6215468;23;20115;-77
2022/05/20 18:03:27;;;;;;;7.45;5.18;;;;;;;23.94;65.39;96554.03;6214355;23;20043;-73
2022/05/20 18:05:55;;;;;;;13.95;5.45;;;;;;;23.87;65.25;96556.16;6213951;23;20403;-73
2022/05/20 18:08:22;;;;;;;10.73;5.38;;;;;;;23.80;65.54;96561.75;6215149;23;20056;-73
2022/05/20 18:10:50;;;;;;;8.77;5.25;;;;;;;23.75;65.93;96569.75;6214181;23;20016;-73
2022/05/20 18:13:18;;;;;;;9.45;5.28;;;;;;;23.70;66.05;96569.69;6214725;23;20031;-73
2022/05/20 18:15:46;;;;;;;7.95;5.20;;;;;;;23.68;65.42;96571.84;6213875;23;20023;-73
2022/05/20 18:18:13;;;;;;;8.88;5.20;;;;;;;23.63;65.40;96588.59;6214469;23;20032;-74
2022/05/20 18:20:43;;;;;;;9.65;5.22;;;;;;;23.61;65.00;96585.44;6215126;23;20356;-73
2022/05/20 18:23:11;;;;;;;9.23;5.38;;;;;;;23.58;65.48;96591.28;6214881;23;20020;-73
2022/05/20 18:25:39;;;;;;;8.18;5.53;;;;;;;23.56;65.54;96589.94;6214909;23;20020;-73
2022/05/20 18:28:07;;;;;;;12.25;5.90;;;;;;;23.52;65.17;96592.31;6214088;23;20021;-73
2022/05/20 18:30:35;;;;;;;7.95;5.97;;;;;;;23.51;65.53;96595.28;6214379;23;20024;-73
2022/05/20 18:33:08;;;;;;;9.60;6.47;;;;;;;23.46;65.85;96593.38;6214912;23;20044;-73
2022/05/20 20:05:26;;;;;;;7.32;4.43;;;;;;;22.41;69.18;96748.47;6196910;23;20020;-79
2022/05/20 20:16:14;;;;;;;8.43;5.57;;;;;;;22.28;70.07;96735.59;6146710;23;20041;-77